createdAt,value
2019-05-16T00:01:33.164Z,5.17
2019-05-16T00:04:05.398Z,5.13
2019-05-16T00:06:40.303Z,4.77
2019-05-16T00:09:12.562Z,5.23
2019-05-16T00:11:44.776Z,5.10
2019-05-16T00:14:18.821Z,5.17
2019-05-16T00:16:50.924Z,5.43
2019-05-16T00:19:23.227Z,5.40
2019-05-16T00:21:55.491Z,5.63
2019-05-16T00:24:29.137Z,4.97
2019-05-16T00:27:01.651Z,5.80
2019-05-16T00:29:33.932Z,5.07
2019-05-16T00:32:08.421Z,5.30
2019-05-16T00:34:42.294Z,5.50
2019-05-16T00:37:14.565Z,6.07
2019-05-16T00:39:48.225Z,5.10
2019-05-16T00:42:20.611Z,5.70
2019-05-16T00:44:52.805Z,4.60
2019-05-16T00:47:25.048Z,4.97
2019-05-16T00:49:58.178Z,5.43
2019-05-16T00:52:30.813Z,4.73
2019-05-16T00:55:03.026Z,5.47
2019-05-16T00:57:35.248Z,5.17
2019-05-16T01:00:08.243Z,5.23
2019-05-16T01:02:40.650Z,6.07
2019-05-16T01:05:14.454Z,5.70
2019-05-16T01:07:48.059Z,4.80
2019-05-16T01:10:21.523Z,5.90
2019-05-16T01:12:53.741Z,5.73
2019-05-16T01:15:26.215Z,5.40
2019-05-16T01:17:58.903Z,5.77
2019-05-16T01:20:31.292Z,5.37
2019-05-16T01:23:03.531Z,5.40
2019-05-16T01:25:35.759Z,5.63
2019-05-16T01:28:08.880Z,5.47
2019-05-16T01:30:41.425Z,5.10
2019-05-16T01:33:13.628Z,5.57
2019-05-16T01:35:47.887Z,5.37
2019-05-16T01:38:20.112Z,5.87
2019-05-16T01:40:52.346Z,4.67
2019-05-16T01:43:24.594Z,5.67
2019-05-16T01:45:57.833Z,5.80
2019-05-16T01:48:30.160Z,6.60
2019-05-16T01:51:02.474Z,6.00
2019-05-16T01:53:34.747Z,5.10
2019-05-16T01:56:08.546Z,5.43
2019-05-16T01:58:40.950Z,5.33
2019-05-16T02:01:15.865Z,5.10
2019-05-16T02:03:48.140Z,4.80
2019-05-16T02:06:20.514Z,5.60
2019-05-16T02:08:52.745Z,5.00
2019-05-16T02:11:24.961Z,5.03
2019-05-16T02:13:58.595Z,5.53
2019-05-16T02:16:31.140Z,5.20
2019-05-16T02:19:03.358Z,4.20
2019-05-16T02:21:35.434Z,4.63
2019-05-16T02:24:08.865Z,4.77
2019-05-16T02:26:41.320Z,4.70
2019-05-16T02:29:15.606Z,4.30
2019-05-16T02:31:51.089Z,5.07
2019-05-16T02:34:22.112Z,4.73
2019-05-16T02:37:14.758Z,4.60
2019-05-16T02:39:30.569Z,4.73
2019-05-16T02:42:02.203Z,4.70
2019-05-16T02:44:34.452Z,4.93
2019-05-16T02:47:06.635Z,5.07
2019-05-16T02:49:41.835Z,4.50
2019-05-16T02:52:13.990Z,5.03
2019-05-16T02:54:51.556Z,4.63
2019-05-16T02:57:22.422Z,4.67
2019-05-16T02:59:54.618Z,5.00
2019-05-16T03:02:26.831Z,4.80
2019-05-16T03:05:00.915Z,5.60
2019-05-16T03:07:41.460Z,4.73
2019-05-16T03:10:07.313Z,5.10
2019-05-16T03:12:41.121Z,4.60
2019-05-16T03:15:13.508Z,5.23
2019-05-16T03:17:45.733Z,4.80
2019-05-16T03:20:21.035Z,5.20
2019-05-16T03:22:52.134Z,4.83
2019-05-16T03:25:24.452Z,4.90
2019-05-16T03:27:56.674Z,4.50
2019-05-16T03:30:34.197Z,4.83
2019-05-16T03:33:05.584Z,4.33
2019-05-16T03:35:37.946Z,4.20
2019-05-16T03:38:12.227Z,4.60
2019-05-16T03:40:44.111Z,4.80
2019-05-16T03:43:16.484Z,4.73
2019-05-16T03:45:52.173Z,4.20
2019-05-16T03:48:22.650Z,4.80
2019-05-16T03:50:54.933Z,4.80
2019-05-16T03:53:27.146Z,4.53
2019-05-16T03:56:01.801Z,4.80
2019-05-16T03:58:33.312Z,4.97
2019-05-16T04:01:05.516Z,4.93
2019-05-16T04:03:40.961Z,4.53
2019-05-16T04:06:12.259Z,5.20
2019-05-16T04:08:44.617Z,5.17
2019-05-16T04:11:22.115Z,5.20
2019-05-16T04:13:51.050Z,4.70
2019-05-16T04:16:23.435Z,4.80
2019-05-16T04:18:55.652Z,5.13
2019-05-16T04:21:31.930Z,5.50
2019-05-16T04:24:01.815Z,5.50
2019-05-16T04:26:36.064Z,5.70
2019-05-16T04:29:11.800Z,5.40
2019-05-16T04:31:44.308Z,5.57
2019-05-16T04:34:16.559Z,5.60
2019-05-16T04:36:51.394Z,5.37
2019-05-16T04:39:22.704Z,5.60
2019-05-16T04:41:54.934Z,4.73
2019-05-16T04:44:30.648Z,5.80
2019-05-16T04:47:01.748Z,5.17
2019-05-16T04:49:35.341Z,5.70
2019-05-16T04:52:07.662Z,5.30
2019-05-16T04:54:41.882Z,5.23
2019-05-16T04:57:13.692Z,5.13
2019-05-16T04:59:45.955Z,5.80
2019-05-16T05:02:21.083Z,5.93
2019-05-16T05:04:52.148Z,5.07
2019-05-16T05:07:24.446Z,5.40
2019-05-16T05:09:56.718Z,5.60
2019-05-16T05:12:31.538Z,5.63
2019-05-16T05:15:02.948Z,5.70
2019-05-16T05:17:35.262Z,5.53
2019-05-16T05:20:10.427Z,5.90
2019-05-16T05:22:41.536Z,5.20
2019-05-16T05:25:13.826Z,5.67
2019-05-16T05:27:47.020Z,5.60
2019-05-16T05:30:21.131Z,5.20
2019-05-16T05:32:53.351Z,4.90
2019-05-16T05:35:25.936Z,5.33
2019-05-16T05:38:00.348Z,5.53
2019-05-16T05:40:32.176Z,5.13
2019-05-16T05:43:04.439Z,5.97
2019-05-16T05:45:36.681Z,4.93
2019-05-16T05:48:10.696Z,5.40
2019-05-16T05:50:43.193Z,5.17
2019-05-16T05:53:15.638Z,5.23
2019-05-16T05:55:50.642Z,5.60
2019-05-16T05:58:21.971Z,5.47
2019-05-16T06:00:54.334Z,5.10
2019-05-16T06:03:26.637Z,4.90
2019-05-16T06:06:01.053Z,5.53
2019-05-16T06:08:33.042Z,5.27
2019-05-16T06:11:05.289Z,6.07
2019-05-16T06:13:40.501Z,5.23
2019-05-16T06:16:12.740Z,5.00
2019-05-16T06:18:45.009Z,5.17
2019-05-16T06:21:20.087Z,4.53
2019-05-16T06:23:51.480Z,4.33
2019-05-16T06:26:23.703Z,4.90
2019-05-16T06:28:55.934Z,4.00
2019-05-16T06:31:31.092Z,4.47
2019-05-16T06:34:08.173Z,4.87
2019-05-16T06:36:36.152Z,4.17
2019-05-16T06:39:11.204Z,3.97
2019-05-16T06:41:42.421Z,4.20
2019-05-16T06:44:14.661Z,4.13
2019-05-16T06:47:03.587Z,3.67
2019-05-16T06:49:21.056Z,4.53
2019-05-16T06:51:53.640Z,4.03
2019-05-16T06:54:25.958Z,4.07
2019-05-16T06:57:00.196Z,3.90
2019-05-16T06:59:32.169Z,3.70
2019-05-16T07:02:04.394Z,3.60
2019-05-16T07:04:36.731Z,3.43
2019-05-16T07:07:11.934Z,3.40
2019-05-16T07:09:57.322Z,3.20
2019-05-16T07:12:20.200Z,3.17
2019-05-16T07:14:52.018Z,3.10
2019-05-16T07:17:24.230Z,2.80
2019-05-16T07:19:56.489Z,3.20
2019-05-16T07:22:31.166Z,3.07
2019-05-16T07:25:02.654Z,3.07
2019-05-16T07:27:35.210Z,3.00
2019-05-16T07:30:07.430Z,2.70
2019-05-16T07:32:40.434Z,2.43
2019-05-16T07:35:12.950Z,2.80
2019-05-16T07:37:45.220Z,2.20
2019-05-16T07:40:23.646Z,2.93
2019-05-16T07:42:51.427Z,2.40
2019-05-16T07:45:24.711Z,2.50
2019-05-16T07:48:00.107Z,2.17
2019-05-16T07:50:32.439Z,2.70
2019-05-16T07:53:04.717Z,2.67
2019-05-16T07:55:37.014Z,2.43
2019-05-16T07:58:10.249Z,2.73
2019-05-16T08:00:52.391Z,2.47
2019-05-16T08:03:19.759Z,2.40
2019-05-16T08:05:51.825Z,2.37
2019-05-16T08:08:24.739Z,2.43
2019-05-16T08:10:57.286Z,2.23
2019-05-16T08:13:30.866Z,2.13
2019-05-16T08:16:03.311Z,2.10
2019-05-16T08:18:35.527Z,1.97
2019-05-16T08:21:10.655Z,2.33
2019-05-16T08:23:41.822Z,2.10
2019-05-16T08:26:14.115Z,2.47
2019-05-16T08:28:46.335Z,2.10
2019-05-16T08:31:21.389Z,2.10
2019-05-16T08:33:54.963Z,2.23
2019-05-16T08:36:26.512Z,2.30
2019-05-16T08:39:01.148Z,2.10
2019-05-16T08:41:32.823Z,1.70
2019-05-16T08:44:05.027Z,1.97
2019-05-16T08:46:41.155Z,2.30
2019-05-16T08:49:12.548Z,2.10
2019-05-16T08:51:45.856Z,2.00
2019-05-16T08:54:20.705Z,2.27
2019-05-16T08:56:52.021Z,1.83
2019-05-16T08:59:24.269Z,3.27
2019-05-16T09:01:58.185Z,2.30
2019-05-16T09:07:04.954Z,2.03
2019-05-16T09:09:44.196Z,2.33
2019-05-16T09:10:30.922Z,2.30
2019-05-16T09:12:12.235Z,2.37
2019-05-16T09:14:47.299Z,2.03
2019-05-16T09:17:18.370Z,2.70
2019-05-16T09:19:51.734Z,2.60
2019-05-16T09:22:24.098Z,2.70
2019-05-16T09:24:57.620Z,2.60
2019-05-16T09:27:30.290Z,2.33
2019-05-16T09:30:02.502Z,2.33
2019-05-16T09:32:36.982Z,2.43
2019-05-16T09:35:08.891Z,2.57
2019-05-16T09:37:41.176Z,2.57
2019-05-16T09:40:13.539Z,2.30
2019-05-16T09:42:47.357Z,2.33
2019-05-16T09:45:19.915Z,2.33
2019-05-16T09:47:52.201Z,2.50
2019-05-16T09:50:26.482Z,2.57
2019-05-16T09:52:58.382Z,2.60
2019-05-16T09:55:30.632Z,2.70
2019-05-16T09:58:02.877Z,2.70
2019-05-16T10:00:37.459Z,2.40
2019-05-16T10:03:09.288Z,2.43
2019-05-16T10:05:42.808Z,2.83
2019-05-16T10:08:17.070Z,1.60
2019-05-16T10:10:48.982Z,1.90
2019-05-16T10:13:21.246Z,2.47
2019-05-16T10:15:53.453Z,1.90
2019-05-16T10:18:27.778Z,2.00
2019-05-16T10:21:00.842Z,1.80
2019-05-16T10:23:33.166Z,2.13
2019-05-16T10:26:05.378Z,1.80
2019-05-16T10:28:38.618Z,1.60
2019-05-16T10:31:11.018Z,1.93
2019-05-16T10:33:43.236Z,1.97
2019-05-16T10:36:17.354Z,2.07
2019-05-16T10:38:49.492Z,2.13
2019-05-16T10:41:21.813Z,1.40
2019-05-16T10:43:54.031Z,1.93
2019-05-16T10:46:26.975Z,2.07
2019-05-16T10:48:59.368Z,2.33
2019-05-16T10:51:31.729Z,1.93
2019-05-16T10:54:13.107Z,2.47
2019-05-16T10:56:40.357Z,2.10
2019-05-16T10:59:51.222Z,2.00
2019-05-16T11:01:47.241Z,2.30
2019-05-16T11:04:29.213Z,2.10
2019-05-16T11:06:57.210Z,2.43
2019-05-16T11:09:29.306Z,2.50
2019-05-16T11:12:01.542Z,2.10
2019-05-16T11:14:33.778Z,2.13
2019-05-16T11:17:07.349Z,2.40
2019-05-16T11:19:40.372Z,2.30
2019-05-16T11:22:12.699Z,2.27
2019-05-16T11:24:47.137Z,1.87
2019-05-16T11:27:19.675Z,2.20
2019-05-16T11:29:52.132Z,2.40
2019-05-16T11:32:27.016Z,2.03
2019-05-16T11:34:58.685Z,2.20
2019-05-16T11:37:31.444Z,2.23
2019-05-16T11:40:03.716Z,3.27
2019-05-16T11:42:37.810Z,2.77
2019-05-16T11:45:10.769Z,2.80
2019-05-16T11:47:43.404Z,2.67
2019-05-16T11:50:17.602Z,2.53
2019-05-16T11:52:49.600Z,2.80
2019-05-16T11:55:21.824Z,2.60
2019-05-16T11:57:56.750Z,2.70
2019-05-16T12:00:30.770Z,2.37
2019-05-16T12:03:03.256Z,2.80
2019-05-16T12:05:37.343Z,2.87
2019-05-16T12:08:09.426Z,2.63
2019-05-16T12:10:42.707Z,2.83
2019-05-16T12:13:25.405Z,2.77
2019-05-16T12:15:49.012Z,2.27
2019-05-16T12:18:22.307Z,2.57
2019-05-16T12:20:56.418Z,2.57
2019-05-16T12:23:28.462Z,2.57
2019-05-16T12:26:00.721Z,2.40
2019-05-16T12:28:33.127Z,2.40
2019-05-16T12:31:07.143Z,2.30
2019-05-16T12:33:39.430Z,2.30
2019-05-16T12:36:12.464Z,2.23
2019-05-16T12:38:46.758Z,2.80
2019-05-16T12:41:19.264Z,2.70
2019-05-16T12:43:53.629Z,2.20
2019-05-16T12:46:27.184Z,2.77
2019-05-16T12:49:00.227Z,2.77
2019-05-16T12:51:33.047Z,2.75
2019-05-16T12:54:07.545Z,2.80
2019-05-16T12:56:40.395Z,2.40
2019-05-16T12:59:20.370Z,2.98
2019-05-16T13:01:48.301Z,2.90
2019-05-16T13:04:21.297Z,2.98
2019-05-16T13:06:54.271Z,2.50
2019-05-16T13:09:27.451Z,2.90
2019-05-16T13:12:00.307Z,2.37
2019-05-16T13:14:33.156Z,2.22
2019-05-16T13:17:07.273Z,2.65
2019-05-16T13:19:44.203Z,2.40
2019-05-16T13:22:17.209Z,3.17
2019-05-16T13:24:51.053Z,3.40
2019-05-16T13:27:23.888Z,3.50
2019-05-16T13:29:58.109Z,3.58
2019-05-16T13:32:31.211Z,3.40
2019-05-16T13:35:04.020Z,3.10
2019-05-16T13:37:36.953Z,3.22
2019-05-16T13:40:09.827Z,3.35
2019-05-16T13:42:42.660Z,3.35
2019-05-16T13:45:17.693Z,3.37
2019-05-16T13:47:50.092Z,3.00
2019-05-16T13:50:22.942Z,3.37
2019-05-16T13:52:58.391Z,2.75
2019-05-16T13:55:30.660Z,2.92
2019-05-16T13:58:03.889Z,2.83
2019-05-16T14:00:37.660Z,3.00
2019-05-16T14:03:10.792Z,3.45
2019-05-16T14:05:43.749Z,3.90
2019-05-16T14:08:17.094Z,3.42
2019-05-16T14:10:49.605Z,3.73
2019-05-16T14:13:21.900Z,3.80
2019-05-16T14:15:54.208Z,3.27
2019-05-16T14:18:27.266Z,3.83
2019-05-16T14:20:59.635Z,3.50
2019-05-16T14:23:31.917Z,4.23
2019-05-16T14:26:06.894Z,3.50
2019-05-16T14:28:38.188Z,4.33
2019-05-16T14:31:10.526Z,3.70
2019-05-16T14:33:42.727Z,3.77
2019-05-16T14:36:15.029Z,3.40
2019-05-16T14:38:47.247Z,3.57
2019-05-16T14:41:19.359Z,3.90
2019-05-16T14:43:51.639Z,3.80
2019-05-16T14:46:23.920Z,3.90
2019-05-16T14:48:56.163Z,4.20
2019-05-16T14:51:31.829Z,3.60
2019-05-16T14:54:02.884Z,3.67
2019-05-16T14:56:35.136Z,3.83
2019-05-16T14:59:08.241Z,4.60
2019-05-16T15:01:41.792Z,4.17
2019-05-16T15:04:14.069Z,3.90
2019-05-16T15:06:47.037Z,3.80
2019-05-16T15:09:20.640Z,4.20
2019-05-16T15:11:52.903Z,4.10
2019-05-16T15:14:27.839Z,4.33
2019-05-16T15:16:59.278Z,3.30
2019-05-16T15:19:31.597Z,3.63
2019-05-16T15:22:03.827Z,3.20
2019-05-16T15:24:37.040Z,2.90
2019-05-16T15:27:09.644Z,2.80
2019-05-16T15:29:42.281Z,3.10
2019-05-16T15:32:14.523Z,3.40
2019-05-16T15:34:47.978Z,3.30
2019-05-16T15:37:20.416Z,3.27
2019-05-16T15:39:54.312Z,3.13
2019-05-16T15:42:27.775Z,3.47
2019-05-16T15:45:00.543Z,3.10
2019-05-16T15:47:33.310Z,3.50
2019-05-16T15:50:08.019Z,3.37
2019-05-16T15:52:40.261Z,3.30
2019-05-16T15:55:12.647Z,3.57
2019-05-16T15:57:47.677Z,3.37
2019-05-16T16:00:20.281Z,3.33
2019-05-16T16:02:52.561Z,4.17
2019-05-16T16:05:26.665Z,3.50
2019-05-16T16:07:59.124Z,3.50
2019-05-16T16:10:31.378Z,3.40
2019-05-16T16:13:03.614Z,3.67
2019-05-16T16:15:49.886Z,3.73
2019-05-16T16:18:09.941Z,3.90
2019-05-16T16:20:42.178Z,3.33
2019-05-16T16:23:14.392Z,3.03
2019-05-16T16:25:50.803Z,3.47
2019-05-16T16:28:20.722Z,3.00
2019-05-16T16:30:52.956Z,3.53
2019-05-16T16:33:29.755Z,3.30
2019-05-16T16:36:01.284Z,3.60
2019-05-16T16:38:33.812Z,4.20
2019-05-16T16:41:08.048Z,3.97
2019-05-16T16:43:40.095Z,3.77
2019-05-16T16:46:13.797Z,4.23
2019-05-16T16:48:46.104Z,3.70
2019-05-16T16:51:18.397Z,3.63
2019-05-16T16:53:50.951Z,3.53
2019-05-16T16:56:23.277Z,3.90
2019-05-16T16:58:55.661Z,3.80
2019-05-16T17:01:27.907Z,3.70
2019-05-16T17:04:01.280Z,3.53
2019-05-16T17:06:33.582Z,3.00
2019-05-16T17:09:07.504Z,3.50
2019-05-16T17:11:40.586Z,2.90
2019-05-16T17:14:13.459Z,3.60
2019-05-16T17:16:47.427Z,3.20
2019-05-16T17:19:19.836Z,3.17
2019-05-16T17:22:06.355Z,3.40
2019-05-16T17:24:27.390Z,3.23
2019-05-16T17:26:59.903Z,3.73
2019-05-16T17:29:32.181Z,3.67
2019-05-16T17:32:07.056Z,3.70
2019-05-16T17:34:38.523Z,3.87
2019-05-16T17:37:11.026Z,4.23
2019-05-16T17:39:43.380Z,4.50
2019-05-16T17:42:16.601Z,5.93
2019-05-16T17:44:49.390Z,5.00
2019-05-16T17:47:21.778Z,5.60
2019-05-16T17:49:54.209Z,5.07
2019-05-16T17:52:27.310Z,6.27
2019-05-16T17:55:00.929Z,6.20
2019-05-16T17:57:33.496Z,6.13
2019-05-16T18:00:07.108Z,5.80
2019-05-16T18:02:39.804Z,5.50
2019-05-16T18:05:12.079Z,5.37
2019-05-16T18:07:44.324Z,6.70
2019-05-16T18:10:16.694Z,6.37
2019-05-16T18:12:49.016Z,6.00
2019-05-16T18:15:21.221Z,6.50
2019-05-16T18:17:53.473Z,6.77
2019-05-16T18:20:26.591Z,6.30
2019-05-16T18:22:59.036Z,6.67
2019-05-16T18:25:31.292Z,5.63
2019-05-16T18:28:03.683Z,5.40
2019-05-16T18:30:36.592Z,5.43
2019-05-16T18:33:09.196Z,5.30
2019-05-16T18:35:41.840Z,4.60
2019-05-16T18:38:14.098Z,4.53
2019-05-16T18:40:47.308Z,4.57
2019-05-16T18:43:21.505Z,4.23
2019-05-16T18:45:53.862Z,4.40
2019-05-16T18:48:27.236Z,4.50
2019-05-16T18:50:59.735Z,4.37
2019-05-16T18:53:32.205Z,3.77
2019-05-16T18:56:04.419Z,3.90
2019-05-16T18:58:37.229Z,4.10
2019-05-16T19:01:09.580Z,3.70
2019-05-16T19:03:41.927Z,3.80
2019-05-16T19:06:27.719Z,4.20
2019-05-16T19:09:02.741Z,3.97
2019-05-16T19:11:36.726Z,4.03
2019-05-16T19:14:09.073Z,3.77
2019-05-16T19:16:41.323Z,3.97
2019-05-16T19:19:13.556Z,3.63
2019-05-16T19:21:45.861Z,3.43
2019-05-16T19:24:18.246Z,3.57
2019-05-16T19:26:50.596Z,3.50
2019-05-16T19:29:22.895Z,3.80
2019-05-16T19:31:57.113Z,3.40
2019-05-16T19:34:29.100Z,5.03
2019-05-16T19:37:01.636Z,5.30
2019-05-16T19:39:33.905Z,3.27
2019-05-16T19:42:06.642Z,3.30
2019-05-16T19:44:38.857Z,3.57
2019-05-16T19:47:11.122Z,3.47
2019-05-16T19:49:43.366Z,3.37
2019-05-16T19:52:16.407Z,3.37
2019-05-16T19:54:49.147Z,2.87
2019-05-16T19:57:21.495Z,3.60
2019-05-16T19:59:53.781Z,3.60
2019-05-16T20:02:27.364Z,3.57
2019-05-16T20:05:01.137Z,3.40
2019-05-16T20:07:33.496Z,3.30
2019-05-16T20:10:08.960Z,3.87
2019-05-16T20:12:41.143Z,2.83
2019-05-16T20:15:13.442Z,3.10
2019-05-16T20:17:58.254Z,3.33
2019-05-16T20:20:19.933Z,3.50
2019-05-16T20:22:52.126Z,3.27
2019-05-16T20:25:26.818Z,3.20
2019-05-16T20:27:59.069Z,3.23
2019-05-16T20:30:31.333Z,3.50
2019-05-16T20:33:03.572Z,3.73
2019-05-16T20:35:37.471Z,3.83
2019-05-16T20:38:09.777Z,4.00
2019-05-16T20:40:42.087Z,3.73
2019-05-16T20:43:16.687Z,3.50
2019-05-16T20:45:48.296Z,3.43
2019-05-16T20:48:20.600Z,3.70
2019-05-16T20:50:52.830Z,3.30
2019-05-16T20:53:27.124Z,3.60
2019-05-16T20:55:59.352Z,3.00
2019-05-16T20:58:31.586Z,3.50
2019-05-16T21:01:03.828Z,3.63
2019-05-16T21:03:37.829Z,3.63
2019-05-16T21:06:11.269Z,3.20
2019-05-16T21:08:43.514Z,3.40
2019-05-16T21:11:17.179Z,3.50
2019-05-16T21:13:49.600Z,3.23
2019-05-16T21:16:21.895Z,3.50
2019-05-16T21:18:54.177Z,3.30
2019-05-16T21:21:27.425Z,3.90
2019-05-16T21:23:59.872Z,4.00
2019-05-16T21:26:32.195Z,3.93
2019-05-16T21:29:04.573Z,3.63
2019-05-16T21:31:36.956Z,3.77
2019-05-16T21:34:09.421Z,4.20
2019-05-16T21:36:41.711Z,3.20
2019-05-16T21:39:14.024Z,3.03
2019-05-16T21:41:47.256Z,4.07
2019-05-16T21:44:19.629Z,3.60
2019-05-16T21:46:53.499Z,3.50
2019-05-16T21:49:27.577Z,3.53
2019-05-16T21:52:00.100Z,3.70
2019-05-16T21:54:32.506Z,3.60
2019-05-16T21:57:06.385Z,3.50
2019-05-16T21:59:38.546Z,3.50
2019-05-16T22:02:10.789Z,3.73
2019-05-16T22:04:43.138Z,4.07
2019-05-16T22:07:16.595Z,3.37
2019-05-16T22:09:49.345Z,3.90
2019-05-16T22:12:22.672Z,3.50
2019-05-16T22:14:57.226Z,3.53
2019-05-16T22:17:30.211Z,3.50
2019-05-16T22:20:02.782Z,3.30
2019-05-16T22:22:38.107Z,3.50
2019-05-16T22:25:10.618Z,3.67
2019-05-16T22:27:42.867Z,3.50
2019-05-16T22:30:16.485Z,3.43
2019-05-16T22:32:48.935Z,3.07
2019-05-16T22:35:21.198Z,3.63
2019-05-16T22:37:56.491Z,3.60
2019-05-16T22:40:27.421Z,3.70
2019-05-16T22:42:59.825Z,3.53
2019-05-16T22:45:32.084Z,3.80
2019-05-16T22:48:06.783Z,3.37
2019-05-16T22:50:38.310Z,3.77
2019-05-16T22:53:10.846Z,3.90
2019-05-16T22:55:43.098Z,4.23
2019-05-16T22:58:16.396Z,4.03
2019-05-16T23:00:48.739Z,4.13
2019-05-16T23:03:21.007Z,4.20
2019-05-16T23:05:53.232Z,4.03
2019-05-16T23:08:27.204Z,4.27
2019-05-16T23:10:59.461Z,3.93
2019-05-16T23:13:31.895Z,4.93
2019-05-16T23:16:03.932Z,5.47
2019-05-16T23:18:37.516Z,5.13
2019-05-16T23:21:10.006Z,5.40
2019-05-16T23:23:42.350Z,5.30
2019-05-16T23:26:16.617Z,5.47
2019-05-16T23:28:50.839Z,5.87
2019-05-16T23:31:23.123Z,5.93
2019-05-16T23:33:56.478Z,6.17
2019-05-16T23:36:28.998Z,6.33
2019-05-16T23:39:01.250Z,6.57
2019-05-16T23:41:36.760Z,6.33
2019-05-16T23:44:08.762Z,5.80
2019-05-16T23:46:41.060Z,6.30
2019-05-16T23:49:13.278Z,6.27
2019-05-16T23:51:47.283Z,6.70
2019-05-16T23:54:20.022Z,6.20
2019-05-16T23:56:52.262Z,6.93
2019-05-16T23:59:24.524Z,7.50
